sensor_id;sensor_type;location;lat;lon;timestamp;noise_LAeq;noise_LA_min;noise_LA_max;noise_LA01;noise_LA95
75467;Laerm;64050;50.634;3.062;2023-04-06T00:02:04;46.84;35.84;53.34;;
75467;Laerm;64050;50.634;3.062;2023-04-06T00:04:30;38.98;34.40;46.44;;
75467;Laerm;64050;50.634;3.062;2023-04-06T00:06:55;45.39;34.70;51.21;;
75467;Laerm;64050;50.634;3.062;2023-04-06T00:09:21;46.43;34.55;50.44;;
75467;Laerm;64050;50.634;3.062;2023-04-06T00:11:46;39.74;34.03;46.56;;
75467;Laerm;64050;50.634;3.062;2023-04-06T00:14:11;49.42;35.81;60.48;;
75467;Laerm;64050;50.634;3.062;2023-04-06T00:16:37;45.40;35.82;52.60;;
75467;Laerm;64050;50.634;3.062;2023-04-06T00:19:02;47.40;34.81;62.98;;
75467;Laerm;64050;50.634;3.062;2023-04-06T00:21:27;43.94;35.09;58.87;;
75467;Laerm;64050;50.634;3.062;2023-04-06T00:23:52;38.01;33.89;45.65;;
75467;Laerm;64050;50.634;3.062;2023-04-06T00:26:17;38.98;34.36;48.16;;
75467;Laerm;64050;50.634;3.062;2023-04-06T00:28:43;41.22;34.58;55.38;;
75467;Laerm;64050;50.634;3.062;2023-04-06T00:31:08;41.69;35.09;50.51;;
75467;Laerm;64050;50.634;3.062;2023-04-06T00:33:33;47.87;36.49;55.27;;
75467;Laerm;64050;50.634;3.062;2023-04-06T00:35:58;43.38;34.72;50.83;;
75467;Laerm;64050;50.634;3.062;2023-04-06T00:38:24;48.02;34.70;51.77;;
75467;Laerm;64050;50.634;3.062;2023-04-06T00:40:49;37.02;34.01;52.78;;
75467;Laerm;64050;50.634;3.062;2023-04-06T00:43:14;47.27;35.00;50.85;;
75467;Laerm;64050;50.634;3.062;2023-04-06T00:45:40;44.89;35.78;51.03;;
75467;Laerm;64050;50.634;3.062;2023-04-06T00:48:05;39.29;35.17;50.92;;
75467;Laerm;64050;50.634;3.062;2023-04-06T00:50:31;48.10;35.65;51.42;;
75467;Laerm;64050;50.634;3.062;2023-04-06T00:52:56;42.03;34.13;58.08;;
75467;Laerm;64050;50.634;3.062;2023-04-06T00:55:21;46.49;33.86;51.39;;
75467;Laerm;64050;50.634;3.062;2023-04-06T00:57:47;43.65;34.97;51.43;;
75467;Laerm;64050;50.634;3.062;2023-04-06T01:00:12;37.55;34.94;39.99;;
75467;Laerm;64050;50.634;3.062;2023-04-06T01:02:38;38.93;35.17;44.43;;
75467;Laerm;64050;50.634;3.062;2023-04-06T01:05:03;39.46;35.32;49.58;;
75467;Laerm;64050;50.634;3.062;2023-04-06T01:07:28;48.26;35.89;51.25;;
75467;Laerm;64050;50.634;3.062;2023-04-06T01:09:54;46.66;35.51;60.76;;
75467;Laerm;64050;50.634;3.062;2023-04-06T01:12:19;47.40;35.24;59.31;;
75467;Laerm;64050;50.634;3.062;2023-04-06T01:14:45;37.79;34.89;42.86;;
75467;Laerm;64050;50.634;3.062;2023-04-06T01:17:10;48.46;36.17;51.48;;
75467;Laerm;64050;50.634;3.062;2023-04-06T01:19:36;38.66;34.83;42.07;;
75467;Laerm;64050;50.634;3.062;2023-04-06T01:22:01;37.45;34.57;42.75;;
75467;Laerm;64050;50.634;3.062;2023-04-06T01:24:26;47.56;38.82;51.14;;
75467;Laerm;64050;50.634;3.062;2023-04-06T01:26:52;40.55;34.19;50.93;;
75467;Laerm;64050;50.634;3.062;2023-04-06T01:29:17;39.37;34.48;46.20;;
75467;Laerm;64050;50.634;3.062;2023-04-06T01:31:42;38.45;35.41;44.76;;
75467;Laerm;64050;50.634;3.062;2023-04-06T01:34:07;36.82;33.89;39.65;;
75467;Laerm;64050;50.634;3.062;2023-04-06T01:36:33;39.66;34.22;50.35;;
75467;Laerm;64050;50.634;3.062;2023-04-06T01:38:58;48.79;36.14;51.49;;
75467;Laerm;64050;50.634;3.062;2023-04-06T01:41:23;45.69;35.12;51.03;;
75467;Laerm;64050;50.634;3.062;2023-04-06T01:43:48;47.44;35.79;51.24;;
75467;Laerm;64050;50.634;3.062;2023-04-06T01:46:14;38.16;35.32;45.22;;
75467;Laerm;64050;50.634;3.062;2023-04-06T01:48:40;39.16;34.73;43.05;;
75467;Laerm;64050;50.634;3.062;2023-04-06T01:51:05;47.89;35.01;51.31;;
75467;Laerm;64050;50.634;3.062;2023-04-06T01:53:30;37.07;33.53;49.20;;
75467;Laerm;64050;50.634;3.062;2023-04-06T01:55:56;39.34;34.74;43.34;;
75467;Laerm;64050;50.634;3.062;2023-04-06T01:58:21;48.16;35.44;51.49;;
75467;Laerm;64050;50.634;3.062;2023-04-06T02:00:46;38.61;35.25;57.58;;
75467;Laerm;64050;50.634;3.062;2023-04-06T02:03:11;41.04;36.37;52.46;;
75467;Laerm;64050;50.634;3.062;2023-04-06T02:05:37;40.43;35.07;57.92;;
75467;Laerm;64050;50.634;3.062;2023-04-06T02:08:05;46.86;34.65;51.05;;
75467;Laerm;64050;50.634;3.062;2023-04-06T02:10:31;44.93;35.12;51.39;;
75467;Laerm;64050;50.634;3.062;2023-04-06T02:12:56;47.13;35.26;50.75;;
75467;Laerm;64050;50.634;3.062;2023-04-06T02:15:21;45.23;35.89;50.48;;
75467;Laerm;64050;50.634;3.062;2023-04-06T02:17:46;47.62;35.24;50.85;;
75467;Laerm;64050;50.634;3.062;2023-04-06T02:20:12;36.98;34.00;54.08;;
75467;Laerm;64050;50.634;3.062;2023-04-06T02:22:37;41.40;34.27;56.39;;
75467;Laerm;64050;50.634;3.062;2023-04-06T02:25:02;36.35;33.62;39.34;;
75467;Laerm;64050;50.634;3.062;2023-04-06T02:27:28;38.37;34.45;43.16;;
75467;Laerm;64050;50.634;3.062;2023-04-06T02:29:53;45.05;35.98;51.07;;
75467;Laerm;64050;50.634;3.062;2023-04-06T02:32:18;46.28;35.20;61.97;;
75467;Laerm;64050;50.634;3.062;2023-04-06T02:34:44;46.21;43.42;61.09;;
75467;Laerm;64050;50.634;3.062;2023-04-06T02:37:09;44.61;34.92;51.19;;
75467;Laerm;64050;50.634;3.062;2023-04-06T02:39:34;47.13;35.29;52.22;;
75467;Laerm;64050;50.634;3.062;2023-04-06T02:42:00;39.41;35.16;42.83;;
75467;Laerm;64050;50.634;3.062;2023-04-06T02:44:25;47.82;35.30;51.11;;
75467;Laerm;64050;50.634;3.062;2023-04-06T02:46:51;45.46;35.94;51.04;;
75467;Laerm;64050;50.634;3.062;2023-04-06T02:49:16;47.93;35.77;50.94;;
75467;Laerm;64050;50.634;3.062;2023-04-06T02:51:41;42.41;35.12;50.88;;
75467;Laerm;64050;50.634;3.062;2023-04-06T02:54:06;47.57;39.56;50.79;;
75467;Laerm;64050;50.634;3.062;2023-04-06T02:56:32;39.08;35.10;50.17;;
75467;Laerm;64050;50.634;3.062;2023-04-06T02:58:57;48.17;35.07;50.64;;
75467;Laerm;64050;50.634;3.062;2023-04-06T03:01:22;39.67;34.90;42.83;;
75467;Laerm;64050;50.634;3.062;2023-04-06T03:03:47;48.13;35.43;50.98;;
75467;Laerm;64050;50.634;3.062;2023-04-06T03:06:13;45.73;37.11;50.65;;
75467;Laerm;64050;50.634;3.062;2023-04-06T03:08:38;47.77;35.80;51.65;;
75467;Laerm;64050;50.634;3.062;2023-04-06T03:11:03;38.11;34.74;42.59;;
75467;Laerm;64050;50.634;3.062;2023-04-06T03:13:28;39.46;35.54;43.13;;
75467;Laerm;64050;50.634;3.062;2023-04-06T03:15:54;40.21;36.37;47.93;;
75467;Laerm;64050;50.634;3.062;2023-04-06T03:18:23;42.72;37.16;52.06;;
75467;Laerm;64050;50.634;3.062;2023-04-06T03:20:48;47.12;38.82;51.74;;
75467;Laerm;64050;50.634;3.062;2023-04-06T03:23:13;43.78;38.18;57.26;;
75467;Laerm;64050;50.634;3.062;2023-04-06T03:25:39;42.43;39.14;45.25;;
75467;Laerm;64050;50.634;3.062;2023-04-06T03:28:07;48.15;41.63;51.34;;
75467;Laerm;64050;50.634;3.062;2023-04-06T03:30:32;45.95;39.62;52.88;;
75467;Laerm;64050;50.634;3.062;2023-04-06T03:32:57;45.98;39.44;53.79;;
75467;Laerm;64050;50.634;3.062;2023-04-06T03:35:22;48.25;38.13;53.22;;
75467;Laerm;64050;50.634;3.062;2023-04-06T03:37:47;42.83;37.31;51.00;;
75467;Laerm;64050;50.634;3.062;2023-04-06T03:40:13;44.86;37.09;52.60;;
75467;Laerm;64050;50.634;3.062;2023-04-06T03:42:38;44.30;39.69;51.57;;
75467;Laerm;64050;50.634;3.062;2023-04-06T03:45:03;45.14;40.13;54.16;;
75467;Laerm;64050;50.634;3.062;2023-04-06T03:47:28;45.17;40.11;52.23;;
75467;Laerm;64050;50.634;3.062;2023-04-06T03:49:54;45.13;40.77;53.03;;
75467;Laerm;64050;50.634;3.062;2023-04-06T03:52:20;45.65;41.55;53.25;;
75467;Laerm;64050;50.634;3.062;2023-04-06T03:54:47;50.08;42.78;56.80;;
75467;Laerm;64050;50.634;3.062;2023-04-06T03:57:13;48.22;41.68;54.36;;
75467;Laerm;64050;50.634;3.062;2023-04-06T03:59:38;50.15;43.64;56.07;;
75467;Laerm;64050;50.634;3.062;2023-04-06T04:02:03;50.69;44.11;54.80;;
75467;Laerm;64050;50.634;3.062;2023-04-06T04:04:28;48.26;43.54;59.15;;
75467;Laerm;64050;50.634;3.062;2023-04-06T04:06:53;47.65;43.61;54.54;;
75467;Laerm;64050;50.634;3.062;2023-04-06T04:09:19;47.43;43.52;54.28;;
75467;Laerm;64050;50.634;3.062;2023-04-06T04:11:44;47.88;44.15;54.19;;
75467;Laerm;64050;50.634;3.062;2023-04-06T04:14:09;50.32;43.40;56.61;;
75467;Laerm;64050;50.634;3.062;2023-04-06T04:16:34;47.35;43.17;54.90;;
75467;Laerm;64050;50.634;3.062;2023-04-06T04:19:00;48.22;43.41;54.68;;
75467;Laerm;64050;50.634;3.062;2023-04-06T04:21:25;50.43;43.56;57.30;;
75467;Laerm;64050;50.634;3.062;2023-04-06T04:23:50;47.71;43.18;53.81;;
75467;Laerm;64050;50.634;3.062;2023-04-06T04:26:16;47.47;43.45;57.47;;
75467;Laerm;64050;50.634;3.062;2023-04-06T04:28:41;49.75;43.02;55.09;;
75467;Laerm;64050;50.634;3.062;2023-04-06T04:31:06;49.30;42.68;55.91;;
75467;Laerm;64050;50.634;3.062;2023-04-06T04:33:31;50.69;43.68;61.22;;
75467;Laerm;64050;50.634;3.062;2023-04-06T04:35:56;48.18;43.32;55.27;;
75467;Laerm;64050;50.634;3.062;2023-04-06T04:38:22;47.18;42.35;57.37;;
75467;Laerm;64050;50.634;3.062;2023-04-06T04:40:47;47.71;42.82;55.08;;
75467;Laerm;64050;50.634;3.062;2023-04-06T04:43:12;47.85;42.24;66.12;;
75467;Laerm;64050;50.634;3.062;2023-04-06T04:45:37;47.90;41.81;55.69;;
75467;Laerm;64050;50.634;3.062;2023-04-06T04:48:03;48.52;42.25;54.18;;
75467;Laerm;64050;50.634;3.062;2023-04-06T04:50:29;46.51;42.38;53.22;;
75467;Laerm;64050;50.634;3.062;2023-04-06T04:52:55;46.16;42.30;52.95;;
75467;Laerm;64050;50.634;3.062;2023-04-06T04:55:20;48.74;43.62;55.02;;
75467;Laerm;64050;50.634;3.062;2023-04-06T04:57:45;50.24;44.13;55.62;;
75467;Laerm;64050;50.634;3.062;2023-04-06T05:00:10;47.89;42.77;54.98;;
75467;Laerm;64050;50.634;3.062;2023-04-06T05:02:36;49.68;43.19;55.64;;
75467;Laerm;64050;50.634;3.062;2023-04-06T05:05:01;49.80;43.35;55.72;;
75467;Laerm;64050;50.634;3.062;2023-04-06T05:07:26;49.60;42.75;54.57;;
75467;Laerm;64050;50.634;3.062;2023-04-06T05:09:51;46.37;41.78;53.68;;
75467;Laerm;64050;50.634;3.062;2023-04-06T05:12:18;46.45;42.34;62.87;;
75467;Laerm;64050;50.634;3.062;2023-04-06T05:14:43;50.24;42.28;63.52;;
75467;Laerm;64050;50.634;3.062;2023-04-06T05:17:08;48.40;44.29;58.91;;
75467;Laerm;64050;50.634;3.062;2023-04-06T05:19:33;48.93;45.04;63.75;;
75467;Laerm;64050;50.634;3.062;2023-04-06T05:21:59;51.61;47.83;63.96;;
75467;Laerm;64050;50.634;3.062;2023-04-06T05:24:24;51.25;48.18;59.58;;
75467;Laerm;64050;50.634;3.062;2023-04-06T05:26:50;50.81;47.10;59.06;;
75467;Laerm;64050;50.634;3.062;2023-04-06T05:29:16;51.92;46.40;66.44;;
75467;Laerm;64050;50.634;3.062;2023-04-06T05:31:41;49.79;45.09;57.66;;
75467;Laerm;64050;50.634;3.062;2023-04-06T05:34:07;51.16;46.34;57.56;;
75467;Laerm;64050;50.634;3.062;2023-04-06T05:36:34;50.34;44.82;63.88;;
75467;Laerm;64050;50.634;3.062;2023-04-06T05:39:00;52.31;44.92;65.34;;
75467;Laerm;64050;50.634;3.062;2023-04-06T05:41:25;49.60;43.87;58.03;;
75467;Laerm;64050;50.634;3.062;2023-04-06T05:43:51;47.99;43.82;55.89;;
75467;Laerm;64050;50.634;3.062;2023-04-06T05:46:16;47.71;43.89;56.92;;
75467;Laerm;64050;50.634;3.062;2023-04-06T05:48:41;47.57;43.24;58.53;;
75467;Laerm;64050;50.634;3.062;2023-04-06T05:51:06;47.58;42.97;56.30;;
75467;Laerm;64050;50.634;3.062;2023-04-06T05:53:32;48.97;43.43;55.37;;
75467;Laerm;64050;50.634;3.062;2023-04-06T05:56:00;50.12;44.23;55.57;;
75467;Laerm;64050;50.634;3.062;2023-04-06T05:58:25;48.96;43.78;66.42;;
75467;Laerm;64050;50.634;3.062;2023-04-06T06:00:55;50.65;44.03;58.24;;
75467;Laerm;64050;50.634;3.062;2023-04-06T06:03:21;49.98;45.07;55.90;;
75467;Laerm;64050;50.634;3.062;2023-04-06T06:05:47;49.68;44.86;60.43;;
75467;Laerm;64050;50.634;3.062;2023-04-06T06:08:12;49.69;43.37;55.72;;
75467;Laerm;64050;50.634;3.062;2023-04-06T06:10:38;48.38;43.25;58.81;;
75467;Laerm;64050;50.634;3.062;2023-04-06T06:13:04;50.51;43.50;63.96;;
75467;Laerm;64050;50.634;3.062;2023-04-06T06:15:29;50.38;43.07;64.03;;
75467;Laerm;64050;50.634;3.062;2023-04-06T06:17:54;47.97;43.55;59.75;;
75467;Laerm;64050;50.634;3.062;2023-04-06T06:20:20;48.36;44.00;56.35;;
75467;Laerm;64050;50.634;3.062;2023-04-06T06:22:45;49.26;44.64;64.28;;
75467;Laerm;64050;50.634;3.062;2023-04-06T06:25:10;50.37;44.03;68.73;;
75467;Laerm;64050;50.634;3.062;2023-04-06T06:27:35;52.36;44.27;78.18;;
75467;Laerm;64050;50.634;3.062;2023-04-06T06:30:01;54.42;45.85;75.13;;
75467;Laerm;64050;50.634;3.062;2023-04-06T06:32:27;52.35;47.21;64.11;;
75467;Laerm;64050;50.634;3.062;2023-04-06T06:34:52;52.68;43.67;70.09;;
75467;Laerm;64050;50.634;3.062;2023-04-06T06:37:17;48.68;43.20;58.41;;
75467;Laerm;64050;50.634;3.062;2023-04-06T06:39:42;50.14;43.92;57.74;;
75467;Laerm;64050;50.634;3.062;2023-04-06T06:42:07;50.84;43.34;70.84;;
75467;Laerm;64050;50.634;3.062;2023-04-06T06:44:33;48.38;41.97;66.44;;
75467;Laerm;64050;50.634;3.062;2023-04-06T06:46:58;50.38;41.31;63.41;;
75467;Laerm;64050;50.634;3.062;2023-04-06T06:49:23;50.82;44.27;73.44;;
75467;Laerm;64050;50.634;3.062;2023-04-06T06:51:48;58.43;47.50;76.80;;
75467;Laerm;64050;50.634;3.062;2023-04-06T06:54:14;56.18;45.85;69.20;;
75467;Laerm;64050;50.634;3.062;2023-04-06T06:56:39;55.59;46.99;83.46;;
75467;Laerm;64050;50.634;3.062;2023-04-06T06:59:04;55.31;46.01;82.86;;
75467;Laerm;64050;50.634;3.062;2023-04-06T07:01:31;52.70;47.71;71.11;;
75467;Laerm;64050;50.634;3.062;2023-04-06T07:03:57;53.10;47.98;67.74;;
75467;Laerm;64050;50.634;3.062;2023-04-06T07:06:22;56.24;46.88;81.64;;
75467;Laerm;64050;50.634;3.062;2023-04-06T07:08:47;51.67;47.46;60.97;;
75467;Laerm;64050;50.634;3.062;2023-04-06T07:11:12;52.41;48.65;60.52;;
75467;Laerm;64050;50.634;3.062;2023-04-06T07:13:38;52.73;47.32;68.77;;
75467;Laerm;64050;50.634;3.062;2023-04-06T07:16:03;51.49;46.31;60.43;;
75467;Laerm;64050;50.634;3.062;2023-04-06T07:18:28;51.58;47.23;64.12;;
75467;Laerm;64050;50.634;3.062;2023-04-06T07:20:53;52.42;47.36;58.51;;
75467;Laerm;64050;50.634;3.062;2023-04-06T07:23:19;53.02;45.57;70.15;;
75467;Laerm;64050;50.634;3.062;2023-04-06T07:25:44;50.19;45.66;62.37;;
75467;Laerm;64050;50.634;3.062;2023-04-06T07:28:10;52.53;47.43;60.08;;
75467;Laerm;64050;50.634;3.062;2023-04-06T07:30:36;51.40;48.14;56.20;;
75467;Laerm;64050;50.634;3.062;2023-04-06T07:33:02;51.94;47.43;60.52;;
75467;Laerm;64050;50.634;3.062;2023-04-06T07:35:27;52.90;49.33;60.79;;
75467;Laerm;64050;50.634;3.062;2023-04-06T07:37:54;54.98;50.17;62.81;;
75467;Laerm;64050;50.634;3.062;2023-04-06T07:40:20;56.14;50.14;82.10;;
75467;Laerm;64050;50.634;3.062;2023-04-06T07:42:46;53.66;48.70;66.48;;
75467;Laerm;64050;50.634;3.062;2023-04-06T07:45:11;52.73;47.74;67.09;;
75467;Laerm;64050;50.634;3.062;2023-04-06T07:47:36;53.16;47.88;77.83;;
75467;Laerm;64050;50.634;3.062;2023-04-06T07:50:01;51.64;47.37;61.31;;
75467;Laerm;64050;50.634;3.062;2023-04-06T07:52:27;52.69;47.28;60.25;;
75467;Laerm;64050;50.634;3.062;2023-04-06T07:54:52;53.80;48.03;66.70;;
75467;Laerm;64050;50.634;3.062;2023-04-06T07:57:17;52.51;48.06;61.34;;
75467;Laerm;64050;50.634;3.062;2023-04-06T07:59:43;53.50;47.37;69.99;;
75467;Laerm;64050;50.634;3.062;2023-04-06T08:02:08;55.29;49.80;71.16;;
75467;Laerm;64050;50.634;3.062;2023-04-06T08:04:34;59.15;51.00;77.18;;
75467;Laerm;64050;50.634;3.062;2023-04-06T08:06:59;56.17;50.49;73.34;;
75467;Laerm;64050;50.634;3.062;2023-04-06T08:09:25;55.88;49.23;70.63;;
75467;Laerm;64050;50.634;3.062;2023-04-06T08:11:50;53.68;48.95;72.50;;
75467;Laerm;64050;50.634;3.062;2023-04-06T08:14:15;54.19;49.76;65.39;;
75467;Laerm;64050;50.634;3.062;2023-04-06T08:16:41;52.90;48.66;61.51;;
75467;Laerm;64050;50.634;3.062;2023-04-06T08:19:06;53.33;49.51;59.63;;
75467;Laerm;64050;50.634;3.062;2023-04-06T08:21:34;56.77;48.21;86.77;;
75467;Laerm;64050;50.634;3.062;2023-04-06T08:24:00;52.21;48.13;66.44;;
75467;Laerm;64050;50.634;3.062;2023-04-06T08:26:25;52.70;48.56;64.04;;
75467;Laerm;64050;50.634;3.062;2023-04-06T08:28:51;53.20;49.37;60.82;;
75467;Laerm;64050;50.634;3.062;2023-04-06T08:31:16;54.16;49.82;61.37;;
75467;Laerm;64050;50.634;3.062;2023-04-06T08:33:41;53.56;49.48;63.96;;
75467;Laerm;64050;50.634;3.062;2023-04-06T08:36:07;55.09;50.28;69.95;;
75467;Laerm;64050;50.634;3.062;2023-04-06T08:38:33;54.38;50.16;66.38;;
75467;Laerm;64050;50.634;3.062;2023-04-06T08:40:58;55.48;50.19;71.53;;
75467;Laerm;64050;50.634;3.062;2023-04-06T08:43:24;53.10;47.45;63.10;;
75467;Laerm;64050;50.634;3.062;2023-04-06T08:45:49;55.02;50.36;68.26;;
75467;Laerm;64050;50.634;3.062;2023-04-06T08:48:15;54.79;49.85;69.46;;
75467;Laerm;64050;50.634;3.062;2023-04-06T08:50:41;54.50;49.47;64.09;;
75467;Laerm;64050;50.634;3.062;2023-04-06T08:53:07;55.67;51.67;75.47;;
75467;Laerm;64050;50.634;3.062;2023-04-06T08:55:33;57.75;52.22;66.06;;
75467;Laerm;64050;50.634;3.062;2023-04-06T08:57:58;60.48;54.80;80.13;;
75467;Laerm;64050;50.634;3.062;2023-04-06T09:00:24;58.80;55.09;72.04;;
75467;Laerm;64050;50.634;3.062;2023-04-06T09:02:50;58.61;55.19;68.67;;
75467;Laerm;64050;50.634;3.062;2023-04-06T09:05:17;58.78;54.82;66.74;;
75467;Laerm;64050;50.634;3.062;2023-04-06T09:07:42;58.86;55.63;66.85;;
75467;Laerm;64050;50.634;3.062;2023-04-06T09:10:07;59.09;56.05;65.57;;
75467;Laerm;64050;50.634;3.062;2023-04-06T09:12:33;59.09;55.68;66.80;;
75467;Laerm;64050;50.634;3.062;2023-04-06T09:14:59;58.81;55.66;65.54;;
75467;Laerm;64050;50.634;3.062;2023-04-06T09:17:28;59.03;55.35;63.42;;
75467;Laerm;64050;50.634;3.062;2023-04-06T09:19:54;59.48;55.65;71.10;;
75467;Laerm;64050;50.634;3.062;2023-04-06T09:22:20;58.40;54.47;65.92;;
75467;Laerm;64050;50.634;3.062;2023-04-06T09:24:52;58.20;54.87;66.12;;
75467;Laerm;64050;50.634;3.062;2023-04-06T09:27:28;58.93;54.89;70.03;;
75467;Laerm;64050;50.634;3.062;2023-04-06T09:30:02;60.14;54.98;76.39;;
75467;Laerm;64050;50.634;3.062;2023-04-06T09:32:27;59.40;55.80;67.57;;
75467;Laerm;64050;50.634;3.062;2023-04-06T09:34:52;59.66;55.99;68.30;;
75467;Laerm;64050;50.634;3.062;2023-04-06T09:37:18;59.72;55.51;75.09;;
75467;Laerm;64050;50.634;3.062;2023-04-06T09:39:44;59.53;56.23;66.93;;
75467;Laerm;64050;50.634;3.062;2023-04-06T09:42:11;59.09;55.72;70.81;;
75467;Laerm;64050;50.634;3.062;2023-04-06T09:44:37;58.68;54.48;72.24;;
75467;Laerm;64050;50.634;3.062;2023-04-06T09:47:03;58.36;53.57;70.47;;
75467;Laerm;64050;50.634;3.062;2023-04-06T09:49:31;57.92;54.56;66.35;;
75467;Laerm;64050;50.634;3.062;2023-04-06T09:52:06;58.24;54.96;68.99;;
75467;Laerm;64050;50.634;3.062;2023-04-06T09:54:33;58.57;54.32;74.46;;
75467;Laerm;64050;50.634;3.062;2023-04-06T09:59:44;58.26;53.98;67.68;;
75467;Laerm;64050;50.634;3.062;2023-04-06T10:02:20;57.95;54.54;61.58;;
75467;Laerm;64050;50.634;3.062;2023-04-06T10:04:50;57.98;54.72;64.25;;
75467;Laerm;64050;50.634;3.062;2023-04-06T10:07:18;57.77;54.61;65.45;;
75467;Laerm;64050;50.634;3.062;2023-04-06T10:09:44;58.13;54.81;67.52;;
75467;Laerm;64050;50.634;3.062;2023-04-06T10:12:10;57.66;54.53;61.59;;
75467;Laerm;64050;50.634;3.062;2023-04-06T10:14:37;58.22;54.76;65.27;;
75467;Laerm;64050;50.634;3.062;2023-04-06T10:17:03;58.10;53.74;68.16;;
75467;Laerm;64050;50.634;3.062;2023-04-06T10:19:32;58.04;54.46;64.25;;
75467;Laerm;64050;50.634;3.062;2023-04-06T10:21:57;57.82;54.33;64.56;;
75467;Laerm;64050;50.634;3.062;2023-04-06T10:24:24;57.56;54.41;61.02;;
75467;Laerm;64050;50.634;3.062;2023-04-06T10:27:02;57.94;54.53;66.07;;
75467;Laerm;64050;50.634;3.062;2023-04-06T10:29:28;57.83;54.41;64.32;;
75467;Laerm;64050;50.634;3.062;2023-04-06T10:31:53;60.90;54.44;84.33;;
75467;Laerm;64050;50.634;3.062;2023-04-06T10:34:20;58.24;54.83;72.19;;
75467;Laerm;64050;50.634;3.062;2023-04-06T10:36:45;58.26;54.77;63.38;;
75467;Laerm;64050;50.634;3.062;2023-04-06T10:39:11;58.08;54.86;63.88;;
75467;Laerm;64050;50.634;3.062;2023-04-06T10:41:40;57.84;54.68;61.31;;
75467;Laerm;64050;50.634;3.062;2023-04-06T10:44:06;57.85;54.59;65.96;;
75467;Laerm;64050;50.634;3.062;2023-04-06T10:46:32;57.79;54.61;64.83;;
75467;Laerm;64050;50.634;3.062;2023-04-06T10:48:58;58.37;54.91;68.51;;
75467;Laerm;64050;50.634;3.062;2023-04-06T10:51:25;58.39;55.16;63.05;;
75467;Laerm;64050;50.634;3.062;2023-04-06T10:53:52;58.39;54.73;67.70;;
75467;Laerm;64050;50.634;3.062;2023-04-06T10:56:18;57.56;54.30;61.46;;
75467;Laerm;64050;50.634;3.062;2023-04-06T10:58:46;58.04;54.65;70.82;;
75467;Laerm;64050;50.634;3.062;2023-04-06T11:01:11;57.76;54.44;65.90;;
75467;Laerm;64050;50.634;3.062;2023-04-06T11:03:47;58.54;53.55;76.80;;
75467;Laerm;64050;50.634;3.062;2023-04-06T11:06:19;57.94;54.51;63.64;;
75467;Laerm;64050;50.634;3.062;2023-04-06T11:08:44;58.04;54.22;65.59;;
75467;Laerm;64050;50.634;3.062;2023-04-06T11:11:10;58.05;53.85;67.26;;
75467;Laerm;64050;50.634;3.062;2023-04-06T11:16:05;58.34;54.78;70.66;;
75467;Laerm;64050;50.634;3.062;2023-04-06T11:18:31;58.17;54.67;64.94;;
75467;Laerm;64050;50.634;3.062;2023-04-06T11:20:56;58.07;54.93;63.59;;
75467;Laerm;64050;50.634;3.062;2023-04-06T11:23:24;58.55;54.73;62.95;;
75467;Laerm;64050;50.634;3.062;2023-04-06T11:25:51;57.98;54.67;66.70;;
75467;Laerm;64050;50.634;3.062;2023-04-06T11:28:16;58.14;55.11;65.11;;
75467;Laerm;64050;50.634;3.062;2023-04-06T11:30:41;58.39;55.33;67.29;;
75467;Laerm;64050;50.634;3.062;2023-04-06T11:33:07;58.46;54.27;64.57;;
75467;Laerm;64050;50.634;3.062;2023-04-06T11:35:33;58.08;54.64;63.56;;
75467;Laerm;64050;50.634;3.062;2023-04-06T11:38:02;57.78;54.15;62.76;;
75467;Laerm;64050;50.634;3.062;2023-04-06T11:40:27;57.93;54.33;63.49;;
75467;Laerm;64050;50.634;3.062;2023-04-06T11:42:55;58.33;55.21;65.49;;
75467;Laerm;64050;50.634;3.062;2023-04-06T11:45:20;58.43;54.45;71.62;;
75467;Laerm;64050;50.634;3.062;2023-04-06T11:47:54;58.03;54.27;64.26;;
75467;Laerm;64050;50.634;3.062;2023-04-06T11:50:20;57.86;54.57;65.25;;
75467;Laerm;64050;50.634;3.062;2023-04-06T11:52:47;57.97;54.47;63.27;;
75467;Laerm;64050;50.634;3.062;2023-04-06T11:55:22;57.93;54.30;65.93;;
75467;Laerm;64050;50.634;3.062;2023-04-06T11:57:47;57.76;54.42;62.48;;
75467;Laerm;64050;50.634;3.062;2023-04-06T12:00:14;57.89;54.64;67.49;;
75467;Laerm;64050;50.634;3.062;2023-04-06T12:02:39;57.90;54.22;65.61;;
75467;Laerm;64050;50.634;3.062;2023-04-06T12:05:05;57.90;54.45;63.08;;
75467;Laerm;64050;50.634;3.062;2023-04-06T12:07:32;58.57;54.36;80.94;;
75467;Laerm;64050;50.634;3.062;2023-04-06T12:10:01;57.89;54.60;66.59;;
75467;Laerm;64050;50.634;3.062;2023-04-06T12:12:27;57.83;54.40;65.52;;
75467;Laerm;64050;50.634;3.062;2023-04-06T12:14:52;57.51;54.20;62.22;;
75467;Laerm;64050;50.634;3.062;2023-04-06T12:17:18;57.60;54.39;63.89;;
75467;Laerm;64050;50.634;3.062;2023-04-06T12:19:43;57.93;54.43;62.05;;
75467;Laerm;64050;50.634;3.062;2023-04-06T12:22:08;57.69;54.74;64.08;;
75467;Laerm;64050;50.634;3.062;2023-04-06T12:24:34;57.55;53.43;62.66;;
75467;Laerm;64050;50.634;3.062;2023-04-06T12:26:59;57.80;54.77;62.69;;
75467;Laerm;64050;50.634;3.062;2023-04-06T12:29:24;57.63;53.43;63.85;;
75467;Laerm;64050;50.634;3.062;2023-04-06T12:31:50;58.33;54.52;76.82;;
75467;Laerm;64050;50.634;3.062;2023-04-06T12:34:16;53.10;45.83;70.12;;
75467;Laerm;64050;50.634;3.062;2023-04-06T12:36:41;52.81;46.19;67.76;;
75467;Laerm;64050;50.634;3.062;2023-04-06T12:39:06;54.80;48.48;77.20;;
75467;Laerm;64050;50.634;3.062;2023-04-06T12:41:31;51.45;45.31;66.87;;
75467;Laerm;64050;50.634;3.062;2023-04-06T12:43:57;50.38;45.19;71.87;;
75467;Laerm;64050;50.634;3.062;2023-04-06T12:46:24;50.51;46.44;60.08;;
75467;Laerm;64050;50.634;3.062;2023-04-06T12:48:50;50.33;45.16;63.96;;
75467;Laerm;64050;50.634;3.062;2023-04-06T12:51:18;51.00;45.91;63.51;;
75467;Laerm;64050;50.634;3.062;2023-04-06T12:53:43;50.50;45.47;64.21;;
75467;Laerm;64050;50.634;3.062;2023-04-06T12:56:14;50.27;45.34;63.85;;
75467;Laerm;64050;50.634;3.062;2023-04-06T12:58:39;49.86;45.46;60.63;;
75467;Laerm;64050;50.634;3.062;2023-04-06T13:01:06;49.80;46.29;60.46;;
75467;Laerm;64050;50.634;3.062;2023-04-06T13:03:32;50.97;45.96;64.52;;
75467;Laerm;64050;50.634;3.062;2023-04-06T13:05:58;51.07;46.91;61.81;;
75467;Laerm;64050;50.634;3.062;2023-04-06T13:08:24;50.64;46.83;62.02;;
75467;Laerm;64050;50.634;3.062;2023-04-06T13:10:50;51.25;47.34;61.10;;
75467;Laerm;64050;50.634;3.062;2023-04-06T13:13:17;52.57;46.04;65.77;;
75467;Laerm;64050;50.634;3.062;2023-04-06T13:15:42;50.29;43.37;60.12;;
75467;Laerm;64050;50.634;3.062;2023-04-06T13:18:08;52.05;45.86;65.54;;
75467;Laerm;64050;50.634;3.062;2023-04-06T13:20:33;50.50;46.64;57.21;;
75467;Laerm;64050;50.634;3.062;2023-04-06T13:22:58;50.18;43.89;64.53;;
75467;Laerm;64050;50.634;3.062;2023-04-06T13:25:24;51.55;47.49;61.44;;
75467;Laerm;64050;50.634;3.062;2023-04-06T13:27:49;52.27;47.65;66.25;;
75467;Laerm;64050;50.634;3.062;2023-04-06T13:30:15;51.45;47.31;62.58;;
75467;Laerm;64050;50.634;3.062;2023-04-06T13:32:41;51.71;44.11;69.47;;
75467;Laerm;64050;50.634;3.062;2023-04-06T13:35:06;53.15;43.60;76.67;;
75467;Laerm;64050;50.634;3.062;2023-04-06T13:37:32;53.27;47.95;70.18;;
75467;Laerm;64050;50.634;3.062;2023-04-06T13:39:57;52.92;45.10;70.51;;
75467;Laerm;64050;50.634;3.062;2023-04-06T13:42:23;52.59;44.34;73.39;;